createdAt,value
2023-01-31T00:00:29.218Z,92.23
2023-01-31T00:03:36.481Z,93.79
2023-01-31T00:06:51.364Z,94.34
2023-01-31T00:09:58.184Z,87.51
2023-01-31T00:13:14.756Z,81.01
2023-01-31T00:16:24.408Z,87.10
2023-01-31T00:19:30.306Z,85.04
2023-01-31T00:22:37.267Z,84.67
2023-01-31T00:25:43.111Z,82.47
2023-01-31T00:28:57.824Z,85.19
2023-01-31T00:32:04.515Z,84.25
2023-01-31T00:35:12.384Z,80.51
2023-01-31T00:38:18.217Z,74.79
2023-01-31T00:41:29.263Z,74.58
2023-01-31T00:44:37.901Z,72.78
2023-01-31T00:47:44.594Z,72.65
2023-01-31T00:50:50.683Z,73.86
2023-01-31T00:53:58.490Z,76.85
2023-01-31T00:57:04.449Z,75.35
2023-01-31T01:00:32.651Z,69.55
2023-01-31T01:03:46.805Z,62.94
2023-01-31T01:06:53.679Z,60.12
2023-01-31T01:10:00.063Z,66.41
2023-01-31T01:13:24.138Z,68.92
2023-01-31T01:16:39.857Z,66.37
2023-01-31T01:19:46.707Z,58.98
2023-01-31T01:22:52.775Z,63.47
2023-01-31T01:25:59.366Z,70.50
2023-01-31T01:29:08.022Z,78.48
2023-01-31T01:32:17.391Z,72.24
2023-01-31T01:35:23.252Z,57.26
2023-01-31T01:38:30.374Z,49.62
2023-01-31T01:41:37.098Z,50.16
2023-01-31T01:44:53.603Z,48.26
2023-01-31T01:48:11.513Z,51.31
2023-01-31T01:51:22.268Z,62.02
2023-01-31T01:54:38.967Z,60.12
2023-01-31T01:57:53.365Z,53.25
2023-01-31T02:00:59.817Z,60.22
2023-01-31T02:04:17.574Z,43.34
2023-01-31T02:07:23.920Z,46.62
2023-01-31T02:10:40.014Z,34.23
2023-01-31T02:13:50.298Z,43.36
2023-01-31T02:16:56.903Z,37.33
2023-01-31T02:20:38.385Z,34.19
2023-01-31T02:24:28.548Z,33.79
2023-01-31T02:28:40.349Z,35.77
2023-01-31T02:32:40.721Z,45.73
2023-01-31T02:36:07.598Z,52.30
2023-01-31T02:39:32.445Z,33.96
2023-01-31T02:42:52.199Z,31.61
2023-01-31T02:46:17.702Z,35.03
2023-01-31T02:49:41.344Z,36.16
2023-01-31T02:53:03.128Z,57.51
2023-01-31T02:56:20.372Z,80.69
2023-01-31T02:59:32.203Z,72.77
2023-01-31T03:02:38.123Z,65.20
2023-01-31T03:05:47.430Z,72.41
2023-01-31T03:09:02.627Z,70.34
2023-01-31T03:12:39.110Z,60.53
2023-01-31T03:16:15.745Z,53.44
2023-01-31T03:19:31.128Z,58.84
2023-01-31T03:22:46.176Z,79.16
2023-01-31T03:25:54.529Z,94.82
2023-01-31T03:29:05.880Z,67.42
2023-01-31T03:32:23.581Z,43.98
2023-01-31T03:35:38.404Z,29.82
2023-01-31T03:39:03.351Z,26.58
2023-01-31T03:42:18.586Z,27.41
2023-01-31T03:45:37.842Z,28.19
2023-01-31T03:48:52.648Z,22.93
2023-01-31T03:52:11.507Z,24.46
2023-01-31T03:55:31.408Z,25.10
2023-01-31T03:58:48.803Z,26.49
2023-01-31T04:02:08.887Z,27.40
2023-01-31T04:05:22.175Z,30.35
2023-01-31T04:08:34.445Z,31.05
2023-01-31T04:11:53.542Z,35.12
2023-01-31T04:15:03.428Z,46.47
2023-01-31T04:18:10.081Z,64.92
2023-01-31T04:21:17.639Z,73.72
2023-01-31T04:24:24.346Z,80.89
2023-01-31T04:27:33.320Z,75.47
2023-01-31T04:30:41.167Z,64.86
2023-01-31T04:33:47.411Z,77.51
2023-01-31T04:36:58.020Z,90.53
2023-01-31T04:40:03.814Z,66.22
2023-01-31T04:43:21.141Z,69.51
2023-01-31T04:46:26.988Z,57.87
2023-01-31T04:49:33.685Z,57.92
2023-01-31T04:52:39.465Z,66.15
2023-01-31T04:55:46.092Z,69.27
2023-01-31T04:58:54.458Z,55.42
2023-01-31T05:02:01.112Z,65.44
2023-01-31T05:05:08.285Z,56.19
2023-01-31T05:08:14.901Z,63.20
2023-01-31T05:11:21.819Z,73.41
2023-01-31T05:14:31.477Z,60.77
2023-01-31T05:17:37.525Z,59.76
2023-01-31T05:20:44.418Z,68.16
2023-01-31T05:23:50.368Z,66.23
2023-01-31T05:26:58.838Z,51.09
2023-01-31T05:30:10.159Z,40.32
2023-01-31T05:33:17.159Z,34.78
2023-01-31T05:36:22.888Z,32.63
2023-01-31T05:39:31.256Z,51.33
2023-01-31T05:42:37.251Z,63.95
2023-01-31T05:45:46.773Z,70.29
2023-01-31T05:48:52.558Z,95.67
2023-01-31T05:52:02.371Z,102.64
2023-01-31T05:55:18.617Z,80.79
2023-01-31T05:58:25.872Z,102.52
2023-01-31T06:01:40.831Z,85.21
2023-01-31T06:04:47.639Z,65.52
2023-01-31T06:07:53.500Z,56.10
2023-01-31T06:11:00.057Z,45.53
2023-01-31T06:14:06.843Z,44.80
2023-01-31T06:17:19.054Z,43.20
2023-01-31T06:20:24.818Z,48.35
2023-01-31T06:23:31.998Z,65.62
2023-01-31T06:26:37.905Z,65.73
2023-01-31T06:29:44.584Z,72.26
2023-01-31T06:32:53.123Z,74.49
2023-01-31T06:36:03.029Z,67.08
2023-01-31T06:39:09.281Z,86.55
2023-01-31T06:42:15.867Z,51.45
2023-01-31T06:45:21.959Z,42.79
2023-01-31T06:48:31.666Z,57.78
2023-01-31T06:51:37.537Z,65.38
2023-01-31T06:54:44.158Z,43.99
2023-01-31T06:57:51.756Z,45.22
2023-01-31T07:00:58.971Z,54.23
2023-01-31T07:04:07.457Z,72.35
2023-01-31T07:07:14.049Z,103.32
2023-01-31T07:10:20.918Z,204.55
2023-01-31T07:13:28.683Z,204.45
2023-01-31T07:16:34.923Z,89.89
2023-01-31T07:19:45.590Z,100.19
2023-01-31T07:22:58.602Z,109.58
2023-01-31T07:26:08.105Z,129.62
2023-01-31T07:29:15.292Z,177.62
2023-01-31T07:32:25.043Z,171.79
2023-01-31T07:35:34.108Z,72.31
2023-01-31T07:38:40.715Z,104.80
2023-01-31T07:41:46.732Z,55.63
2023-01-31T07:44:53.694Z,73.02
2023-01-31T07:48:01.915Z,40.22
2023-01-31T07:51:11.929Z,49.22
2023-01-31T07:54:18.843Z,99.58
2023-01-31T07:57:29.750Z,112.56
2023-01-31T08:00:48.401Z,105.44
2023-01-31T08:03:55.736Z,60.74
2023-01-31T08:07:06.375Z,78.47
2023-01-31T08:10:17.497Z,100.91
2023-01-31T08:13:23.277Z,64.95
2023-01-31T08:16:32.149Z,65.53
2023-01-31T08:19:48.270Z,64.06
2023-01-31T08:23:00.082Z,102.69
2023-01-31T08:26:09.997Z,71.33
2023-01-31T08:29:16.718Z,109.65
2023-01-31T08:32:22.555Z,113.37
2023-01-31T08:35:30.408Z,89.13
2023-01-31T08:38:42.997Z,61.86
2023-01-31T08:41:49.673Z,66.28
2023-01-31T08:44:56.454Z,61.51
2023-01-31T08:48:04.076Z,60.87
2023-01-31T08:51:13.086Z,68.74
2023-01-31T08:54:22.257Z,70.59
2023-01-31T08:57:28.203Z,61.21
2023-01-31T09:00:35.886Z,69.15
2023-01-31T09:03:44.732Z,88.01
2023-01-31T09:06:52.083Z,72.55
2023-01-31T09:10:00.439Z,52.08
2023-01-31T09:13:10.647Z,49.06
2023-01-31T09:16:18.157Z,56.59
2023-01-31T09:19:25.576Z,77.94
2023-01-31T09:22:36.952Z,52.09
2023-01-31T09:25:47.914Z,51.30
2023-01-31T09:28:54.094Z,55.29
2023-01-31T09:32:00.973Z,59.05
2023-01-31T09:35:14.119Z,56.72
2023-01-31T09:38:20.936Z,82.85
2023-01-31T09:41:39.137Z,67.55
2023-01-31T09:44:59.716Z,57.49
2023-01-31T09:48:10.108Z,50.03
2023-01-31T09:51:20.013Z,56.59
2023-01-31T09:54:40.674Z,90.74
2023-01-31T09:58:08.107Z,83.57
2023-01-31T10:01:26.577Z,84.89
2023-01-31T10:05:07.795Z,104.17
2023-01-31T10:08:36.566Z,63.44
2023-01-31T10:11:52.202Z,64.49
2023-01-31T10:15:07.183Z,94.21
2023-01-31T10:18:26.122Z,54.92
2023-01-31T10:21:42.003Z,52.26
2023-01-31T10:25:00.012Z,62.80
2023-01-31T10:28:37.210Z,62.82
2023-01-31T10:31:54.574Z,60.04
2023-01-31T10:35:13.055Z,41.47
2023-01-31T10:38:31.407Z,55.93
2023-01-31T10:42:08.256Z,72.20
2023-01-31T10:45:22.494Z,58.01
2023-01-31T10:48:33.963Z,108.53
2023-01-31T10:52:06.907Z,158.37
2023-01-31T10:55:55.354Z,64.45
2023-01-31T10:59:08.034Z,72.01
2023-01-31T11:02:25.529Z,85.04
2023-01-31T11:05:52.285Z,58.98
2023-01-31T11:09:02.690Z,49.04
2023-01-31T11:12:11.697Z,91.64
2023-01-31T11:15:26.267Z,88.58
2023-01-31T11:18:47.911Z,55.73
2023-01-31T11:22:04.916Z,70.60
2023-01-31T11:25:25.472Z,74.55
2023-01-31T11:28:40.282Z,61.32
2023-01-31T11:31:50.887Z,60.44
2023-01-31T11:35:06.607Z,49.01
2023-01-31T11:38:27.969Z,113.82
2023-01-31T11:41:38.216Z,166.20
2023-01-31T11:44:59.930Z,165.95
2023-01-31T11:48:19.643Z,87.88
2023-01-31T11:51:34.232Z,88.02
2023-01-31T11:54:52.381Z,97.09
2023-01-31T11:58:04.845Z,138.38
2023-01-31T12:01:20.982Z,191.13
2023-01-31T12:04:38.116Z,179.48
2023-01-31T12:07:58.805Z,166.54
2023-01-31T12:11:32.153Z,163.75
2023-01-31T12:14:45.028Z,93.70
2023-01-31T12:17:53.997Z,79.53
2023-01-31T12:21:17.966Z,52.80
2023-01-31T12:24:43.797Z,43.31
2023-01-31T12:28:19.558Z,53.19
2023-01-31T12:31:52.795Z,73.15
2023-01-31T12:35:35.593Z,73.74
2023-01-31T12:39:02.153Z,55.74
2023-01-31T12:42:36.035Z,61.54
2023-01-31T12:46:09.918Z,72.17
2023-01-31T12:49:52.245Z,86.84
2023-01-31T12:53:41.296Z,69.14
2023-01-31T12:57:07.828Z,81.09
2023-01-31T13:00:40.364Z,94.97
2023-01-31T13:04:19.823Z,115.16
2023-01-31T13:07:41.762Z,107.45
2023-01-31T13:10:56.099Z,65.32
2023-01-31T13:14:08.934Z,59.24
2023-01-31T13:17:21.335Z,64.63
2023-01-31T13:20:43.011Z,142.72
2023-01-31T13:23:57.027Z,230.71
2023-01-31T13:27:14.655Z,147.31
2023-01-31T13:30:34.209Z,115.15
2023-01-31T13:33:54.014Z,86.90
2023-01-31T13:37:12.494Z,111.95
2023-01-31T13:40:25.608Z,89.96
2023-01-31T13:43:31.440Z,97.28
2023-01-31T13:46:53.941Z,148.32
2023-01-31T13:50:07.543Z,128.82
2023-01-31T13:53:29.531Z,213.41
2023-01-31T13:56:41.521Z,191.11
2023-01-31T13:59:59.441Z,187.07
2023-01-31T14:03:08.863Z,161.51
2023-01-31T14:06:15.618Z,117.03
2023-01-31T14:09:31.097Z,113.13
2023-01-31T14:12:41.224Z,106.40
2023-01-31T14:15:53.680Z,128.28
2023-01-31T14:19:00.570Z,116.28
2023-01-31T14:22:19.404Z,118.79
2023-01-31T14:25:45.732Z,117.63
2023-01-31T14:28:51.709Z,128.69
2023-01-31T14:32:02.255Z,130.79
2023-01-31T14:35:49.308Z,156.63
2023-01-31T14:39:54.558Z,141.06
2023-01-31T14:43:39.048Z,113.28
2023-01-31T14:47:17.201Z,140.86
2023-01-31T14:50:50.215Z,119.58
2023-01-31T14:54:38.957Z,97.08
2023-01-31T14:57:50.877Z,118.91
2023-01-31T15:01:04.348Z,121.43
2023-01-31T15:04:10.352Z,108.20
2023-01-31T15:07:20.539Z,142.37
2023-01-31T15:10:58.475Z,174.90
2023-01-31T15:14:34.366Z,248.59
2023-01-31T15:17:58.084Z,275.49
2023-01-31T15:21:18.387Z,274.98
2023-01-31T15:24:35.660Z,212.07
2023-01-31T15:27:47.718Z,280.28
2023-01-31T15:30:57.783Z,233.66
2023-01-31T15:34:23.041Z,262.90
2023-01-31T15:37:37.268Z,325.28
2023-01-31T15:40:44.035Z,246.86
2023-01-31T15:43:51.912Z,257.69
2023-01-31T15:47:03.789Z,249.64
2023-01-31T15:50:23.289Z,220.98
2023-01-31T15:53:33.242Z,194.29
2023-01-31T15:56:46.770Z,152.05
2023-01-31T15:59:53.816Z,165.84
2023-01-31T16:03:07.023Z,171.73
2023-01-31T16:06:29.003Z,167.84
2023-01-31T16:09:39.191Z,140.96
2023-01-31T16:12:51.986Z,148.61
2023-01-31T16:15:58.710Z,147.08
2023-01-31T16:19:10.565Z,178.66
2023-01-31T16:22:32.408Z,200.80
2023-01-31T16:25:40.224Z,243.91
2023-01-31T16:28:53.915Z,265.96
2023-01-31T16:32:00.955Z,327.35
2023-01-31T16:35:11.628Z,327.46
2023-01-31T16:38:29.975Z,328.84
2023-01-31T16:41:50.794Z,276.15
2023-01-31T16:44:57.410Z,256.78
2023-01-31T16:48:34.389Z,272.87
2023-01-31T16:51:49.552Z,295.37
2023-01-31T16:55:08.438Z,255.83
2023-01-31T16:58:53.114Z,259.15
2023-01-31T17:02:07.192Z,268.80
2023-01-31T17:05:26.318Z,272.96
2023-01-31T17:08:32.441Z,248.30
2023-01-31T17:11:43.959Z,236.57
2023-01-31T17:14:50.224Z,246.85
2023-01-31T17:17:58.894Z,232.90
2023-01-31T17:21:04.682Z,271.13
2023-01-31T17:24:17.981Z,298.11
2023-01-31T17:27:26.499Z,290.63
2023-01-31T17:30:33.812Z,261.15
2023-01-31T17:33:39.620Z,262.49
2023-01-31T17:36:49.373Z,267.28
2023-01-31T17:39:55.137Z,271.13
2023-01-31T17:43:07.353Z,292.13
2023-01-31T17:46:19.317Z,251.67
2023-01-31T17:49:26.412Z,256.66
2023-01-31T17:52:32.271Z,273.75
2023-01-31T17:55:45.754Z,248.15
2023-01-31T17:58:54.585Z,374.10
2023-01-31T18:02:03.126Z,407.61
2023-01-31T18:05:09.917Z,291.43
2023-01-31T18:08:17.797Z,279.75
2023-01-31T18:11:26.017Z,252.44
2023-01-31T18:14:39.007Z,242.05
2023-01-31T18:17:45.670Z,232.48
2023-01-31T18:20:52.317Z,239.77
2023-01-31T18:24:08.419Z,223.41
2023-01-31T18:27:33.565Z,222.96
2023-01-31T18:30:45.469Z,217.01
2023-01-31T18:33:52.270Z,197.87
2023-01-31T18:36:58.239Z,184.92
2023-01-31T18:40:19.490Z,214.19
2023-01-31T18:43:26.734Z,195.76
2023-01-31T18:46:35.958Z,235.95
2023-01-31T18:49:45.923Z,206.99
2023-01-31T18:52:52.534Z,250.65
2023-01-31T18:56:05.694Z,245.22
2023-01-31T18:59:12.530Z,268.08
2023-01-31T19:02:21.112Z,255.92
2023-01-31T19:05:28.612Z,246.58
2023-01-31T19:08:35.396Z,236.88
2023-01-31T19:11:43.700Z,239.83
2023-01-31T19:14:49.676Z,227.72
2023-01-31T19:17:58.888Z,240.12
2023-01-31T19:21:05.034Z,254.76
2023-01-31T19:24:17.172Z,240.99
2023-01-31T19:27:23.421Z,211.33
2023-01-31T19:30:30.113Z,183.81
2023-01-31T19:33:39.401Z,170.20
2023-01-31T19:36:50.370Z,172.85
2023-01-31T19:39:56.240Z,175.77
2023-01-31T19:43:05.018Z,163.32
2023-01-31T19:46:13.275Z,153.09
2023-01-31T19:49:23.378Z,148.54
2023-01-31T19:52:36.538Z,155.98
2023-01-31T19:55:43.214Z,153.00
2023-01-31T19:59:00.749Z,216.57
2023-01-31T20:02:07.378Z,176.73
2023-01-31T20:05:19.177Z,160.56
2023-01-31T20:08:29.152Z,169.82
2023-01-31T20:11:36.905Z,173.68
2023-01-31T20:14:43.639Z,175.90
2023-01-31T20:17:49.430Z,188.67
2023-01-31T20:20:59.110Z,180.46
2023-01-31T20:24:05.215Z,149.74
2023-01-31T20:27:11.823Z,153.48
2023-01-31T20:30:20.175Z,137.59
2023-01-31T20:33:26.930Z,144.44
2023-01-31T20:36:35.366Z,135.60
2023-01-31T20:39:44.477Z,197.78
2023-01-31T20:42:50.570Z,245.84
2023-01-31T20:46:06.568Z,227.16
2023-01-31T20:49:12.571Z,140.28
2023-01-31T20:52:24.462Z,142.73
2023-01-31T20:55:34.317Z,145.83
2023-01-31T20:58:44.084Z,203.69
2023-01-31T21:01:50.066Z,282.08
2023-01-31T21:05:12.097Z,217.12
2023-01-31T21:08:20.760Z,195.09
2023-01-31T21:11:27.854Z,141.14
2023-01-31T21:14:33.634Z,126.86
2023-01-31T21:17:40.833Z,127.34
2023-01-31T21:20:49.349Z,134.62
2023-01-31T21:24:08.990Z,135.04
2023-01-31T21:27:17.364Z,141.45
2023-01-31T21:30:36.352Z,137.29
2023-01-31T21:33:42.304Z,195.60
2023-01-31T21:36:49.060Z,242.65
2023-01-31T21:39:57.847Z,150.12
2023-01-31T21:43:04.397Z,142.60
2023-01-31T21:46:12.501Z,182.39
2023-01-31T21:49:19.529Z,223.53
2023-01-31T21:52:25.361Z,237.55
2023-01-31T21:55:34.500Z,165.07
2023-01-31T21:58:42.380Z,157.39
2023-01-31T22:01:51.790Z,167.09
2023-01-31T22:04:57.744Z,287.91
2023-01-31T22:08:04.374Z,279.44
2023-01-31T22:11:19.170Z,164.60
2023-01-31T22:14:26.246Z,159.82
2023-01-31T22:17:31.926Z,150.61
2023-01-31T22:20:40.672Z,147.43
2023-01-31T22:23:51.089Z,160.13
2023-01-31T22:27:00.357Z,166.53
2023-01-31T22:30:16.069Z,167.87
2023-01-31T22:33:22.863Z,183.33
2023-01-31T22:36:28.717Z,199.42
2023-01-31T22:39:35.269Z,200.29
2023-01-31T22:42:43.653Z,166.24
2023-01-31T22:45:53.758Z,157.86
2023-01-31T22:49:00.368Z,172.58
2023-01-31T22:52:07.388Z,163.62
2023-01-31T22:55:16.431Z,164.24
2023-01-31T22:58:25.904Z,160.80
2023-01-31T23:01:35.272Z,158.93
2023-01-31T23:04:42.165Z,171.08
2023-01-31T23:07:47.933Z,168.77
2023-01-31T23:10:54.539Z,180.96
2023-01-31T23:14:03.307Z,217.77
2023-01-31T23:17:28.376Z,232.31
2023-01-31T23:20:38.809Z,172.64
2023-01-31T23:23:46.813Z,142.25
2023-01-31T23:26:54.567Z,139.99
2023-01-31T23:30:03.795Z,137.92
2023-01-31T23:33:11.520Z,138.90
2023-01-31T23:36:18.145Z,130.69
2023-01-31T23:39:23.830Z,119.28
2023-01-31T23:42:30.964Z,121.32
2023-01-31T23:45:40.753Z,129.10
2023-01-31T23:48:47.413Z,121.18
2023-01-31T23:51:55.671Z,121.59
2023-01-31T23:55:08.475Z,113.94
2023-01-31T23:58:28.711Z,118.60
